Catano, PR

12:02 AM AST on October 01, 2016 (GMT -0400)
Urb Levittown Lakes PR | | Change Station

Elev 28 ft 18.44 °N, 66.17 °W | Updated 2 seconds ago

Light Rain
Light Rain Mist
77.9 °F
Feels Like 80 °F
N
0.0
Wind Variable Wind from South
Gusts 0.0 mph

Today
High -- | Low -- °F
--% Chance of Precip.
Yesterday
High -- | Low -- °F
Precip. -- in
Pressure 29.89 in
Visibility 6.0 miles
Clouds Few 2400 ft
Scattered Clouds 3200 ft
Mostly Cloudy 4400 ft
Heat Index 80 °F
Dew Point 75 °F
Humidity 91%
Rainfall 0.00 in
Snow Depth Not available.
6:15 AM 6:12 PM
New Moon, 0% visible
METAR TJSJ 010256Z 00000KT 6SM -RA BR FEW024 SCT032 BKN044 26/25 A2990 RMK AO2 RAB52 SLP122 P0003 60007 T02560250 50005
Pressure 29.89 in
Visibility 6.0 miles
Clouds Few 2400 ft
Scattered Clouds 3200 ft
Mostly Cloudy 4400 ft
Heat Index 80 °F
Dew Point 75 °F
Humidity 91%
Rainfall 0.00 in
Snow Depth Not available.
6:15 AM 6:12 PM
New Moon, 0% visible
METAR TJSJ 010256Z 00000KT 6SM -RA BR FEW024 SCT032 BKN044 26/25 A2990 RMK AO2 RAB52 SLP122 P0003 60007 T02560250 50005

10-Day Weather Forecast

Almanac

Astronomy

Oct. 01, 2016 Rise Set
Actual Time
Civil Twilight
Nautical Twilight
Astronomical Twilight
Moon
Length of Visible Light
Length of Day
Tomorrow will be .
, % of the Moon is Illuminated

Today's Extremes

State Highs State Lows

Community

WunderPhotos

Upload Photos

1,942,886 photos uploaded!

WunderBlog® & News

Nearby

Air Quality

  Air Quality AQ Index Pollutant
Not available.

Snow Depth

Station Depth Elevation

Earthquake Activity

City Distance Mag. Time & Date
Minimum magnitude displayed is 2.5.

Coastal Water Temperatures

Place Temperature

Stations

Nearby Weather Stations

Station Location Temp. Windchill Dew Point Humidity Wind Precip. Elev Updated Type
                   

Watches & Warnings

There are currently no watches in effect.